sensor_id;sensor_type;location;lat;lon;timestamp;P1;durP1;ratioP1;P2;durP2;ratioP2
45224;SDS011;30963;48.696;8.764;2022-08-03T00:00:52;6.75;;;5.00;;
45224;SDS011;30963;48.696;8.764;2022-08-03T00:03:18;5.75;;;5.10;;
45224;SDS011;30963;48.696;8.764;2022-08-03T00:05:44;5.40;;;4.90;;
45224;SDS011;30963;48.696;8.764;2022-08-03T00:08:10;5.18;;;4.70;;
45224;SDS011;30963;48.696;8.764;2022-08-03T00:10:39;6.82;;;5.03;;
45224;SDS011;30963;48.696;8.764;2022-08-03T00:13:05;5.97;;;5.25;;
45224;SDS011;30963;48.696;8.764;2022-08-03T00:15:31;5.65;;;5.25;;
45224;SDS011;30963;48.696;8.764;2022-08-03T00:17:56;6.18;;;5.00;;
45224;SDS011;30963;48.696;8.764;2022-08-03T00:20:23;5.13;;;4.72;;
45224;SDS011;30963;48.696;8.764;2022-08-03T00:22:49;4.82;;;4.40;;
45224;SDS011;30963;48.696;8.764;2022-08-03T00:25:15;5.60;;;5.20;;
45224;SDS011;30963;48.696;8.764;2022-08-03T00:27:42;5.15;;;4.70;;
45224;SDS011;30963;48.696;8.764;2022-08-03T00:30:08;5.63;;;5.22;;
45224;SDS011;30963;48.696;8.764;2022-08-03T00:32:34;5.82;;;5.32;;
45224;SDS011;30963;48.696;8.764;2022-08-03T00:35:00;5.38;;;4.97;;
45224;SDS011;30963;48.696;8.764;2022-08-03T00:37:26;5.47;;;5.07;;
45224;SDS011;30963;48.696;8.764;2022-08-03T00:39:52;5.38;;;4.90;;
45224;SDS011;30963;48.696;8.764;2022-08-03T00:42:18;5.88;;;5.07;;
45224;SDS011;30963;48.696;8.764;2022-08-03T00:44:44;5.65;;;5.13;;
45224;SDS011;30963;48.696;8.764;2022-08-03T00:47:10;5.78;;;5.18;;
45224;SDS011;30963;48.696;8.764;2022-08-03T00:49:36;5.80;;;5.30;;
45224;SDS011;30963;48.696;8.764;2022-08-03T00:52:03;5.47;;;4.97;;
45224;SDS011;30963;48.696;8.764;2022-08-03T00:54:32;5.60;;;5.10;;
45224;SDS011;30963;48.696;8.764;2022-08-03T00:56:58;5.55;;;5.05;;
45224;SDS011;30963;48.696;8.764;2022-08-03T00:59:24;5.93;;;5.43;;
45224;SDS011;30963;48.696;8.764;2022-08-03T01:01:50;5.25;;;4.75;;
45224;SDS011;30963;48.696;8.764;2022-08-03T01:04:16;5.97;;;5.55;;
45224;SDS011;30963;48.696;8.764;2022-08-03T01:06:42;5.00;;;4.70;;
45224;SDS011;30963;48.696;8.764;2022-08-03T01:11:56;6.32;;;5.80;;
45224;SDS011;30963;48.696;8.764;2022-08-03T01:17:38;5.90;;;5.40;;
45224;SDS011;30963;48.696;8.764;2022-08-03T01:32:33;6.70;;;6.00;;
45224;SDS011;30963;48.696;8.764;2022-08-03T01:35:01;6.18;;;5.70;;
45224;SDS011;30963;48.696;8.764;2022-08-03T01:37:34;5.72;;;5.22;;
45224;SDS011;30963;48.696;8.764;2022-08-03T01:40:01;5.72;;;5.22;;
45224;SDS011;30963;48.696;8.764;2022-08-03T01:42:30;5.75;;;5.35;;
45224;SDS011;30963;48.696;8.764;2022-08-03T01:44:59;5.50;;;5.10;;
45224;SDS011;30963;48.696;8.764;2022-08-03T01:47:26;5.75;;;5.35;;
45224;SDS011;30963;48.696;8.764;2022-08-03T01:49:53;5.82;;;5.43;;
45224;SDS011;30963;48.696;8.764;2022-08-03T01:52:23;5.97;;;5.57;;
45224;SDS011;30963;48.696;8.764;2022-08-03T01:54:50;6.10;;;5.55;;
45224;SDS011;30963;48.696;8.764;2022-08-03T01:57:17;5.72;;;5.22;;
45224;SDS011;30963;48.696;8.764;2022-08-03T01:59:46;5.93;;;5.43;;
45224;SDS011;30963;48.696;8.764;2022-08-03T02:02:14;6.30;;;5.80;;
45224;SDS011;30963;48.696;8.764;2022-08-03T02:04:43;6.25;;;5.75;;
45224;SDS011;30963;48.696;8.764;2022-08-03T02:07:10;5.50;;;5.10;;
45224;SDS011;30963;48.696;8.764;2022-08-03T02:09:39;6.38;;;5.78;;
45224;SDS011;30963;48.696;8.764;2022-08-03T02:12:09;5.60;;;5.20;;
45224;SDS011;30963;48.696;8.764;2022-08-03T02:14:38;6.20;;;5.70;;
45224;SDS011;30963;48.696;8.764;2022-08-03T02:17:07;5.78;;;5.32;;
45224;SDS011;30963;48.696;8.764;2022-08-03T02:19:36;5.85;;;5.45;;
45224;SDS011;30963;48.696;8.764;2022-08-03T02:22:04;7.05;;;5.90;;
45224;SDS011;30963;48.696;8.764;2022-08-03T02:24:30;5.95;;;5.47;;
45224;SDS011;30963;48.696;8.764;2022-08-03T02:26:56;5.88;;;5.30;;
45224;SDS011;30963;48.696;8.764;2022-08-03T02:29:24;5.57;;;5.18;;
45224;SDS011;30963;48.696;8.764;2022-08-03T02:31:51;6.25;;;5.75;;
45224;SDS011;30963;48.696;8.764;2022-08-03T02:34:21;6.63;;;5.90;;
45224;SDS011;30963;48.696;8.764;2022-08-03T02:36:49;6.30;;;5.80;;
45224;SDS011;30963;48.696;8.764;2022-08-03T02:39:16;6.45;;;5.90;;
45224;SDS011;30963;48.696;8.764;2022-08-03T02:41:46;6.18;;;5.78;;
45224;SDS011;30963;48.696;8.764;2022-08-03T02:44:13;6.22;;;5.72;;
45224;SDS011;30963;48.696;8.764;2022-08-03T02:46:43;6.05;;;5.55;;
45224;SDS011;30963;48.696;8.764;2022-08-03T02:49:11;6.00;;;5.60;;
45224;SDS011;30963;48.696;8.764;2022-08-03T02:51:38;5.80;;;5.40;;
45224;SDS011;30963;48.696;8.764;2022-08-03T02:54:04;5.85;;;5.35;;
45224;SDS011;30963;48.696;8.764;2022-08-03T02:56:32;6.25;;;5.68;;
45224;SDS011;30963;48.696;8.764;2022-08-03T02:58:59;6.75;;;6.13;;
45224;SDS011;30963;48.696;8.764;2022-08-03T03:01:26;6.40;;;5.90;;
45224;SDS011;30963;48.696;8.764;2022-08-03T03:03:53;6.05;;;5.65;;
45224;SDS011;30963;48.696;8.764;2022-08-03T03:06:19;6.13;;;5.50;;
45224;SDS011;30963;48.696;8.764;2022-08-03T03:08:48;6.22;;;5.70;;
45224;SDS011;30963;48.696;8.764;2022-08-03T03:11:16;5.80;;;5.25;;
45224;SDS011;30963;48.696;8.764;2022-08-03T03:13:43;5.80;;;5.30;;
45224;SDS011;30963;48.696;8.764;2022-08-03T03:16:10;6.50;;;5.93;;
45224;SDS011;30963;48.696;8.764;2022-08-03T03:18:37;5.68;;;5.28;;
45224;SDS011;30963;48.696;8.764;2022-08-03T03:21:04;6.07;;;5.68;;
45224;SDS011;30963;48.696;8.764;2022-08-03T03:23:30;6.18;;;5.68;;
45224;SDS011;30963;48.696;8.764;2022-08-03T03:25:58;6.10;;;5.68;;
45224;SDS011;30963;48.696;8.764;2022-08-03T03:28:26;6.28;;;5.75;;
45224;SDS011;30963;48.696;8.764;2022-08-03T03:30:52;6.25;;;5.82;;
45224;SDS011;30963;48.696;8.764;2022-08-03T03:33:21;6.82;;;6.15;;
45224;SDS011;30963;48.696;8.764;2022-08-03T03:35:47;5.80;;;5.32;;
45224;SDS011;30963;48.696;8.764;2022-08-03T03:38:13;6.55;;;5.95;;
45224;SDS011;30963;48.696;8.764;2022-08-03T03:40:39;6.32;;;5.72;;
45224;SDS011;30963;48.696;8.764;2022-08-03T03:43:08;5.82;;;5.05;;
45224;SDS011;30963;48.696;8.764;2022-08-03T03:45:34;6.07;;;5.68;;
45224;SDS011;30963;48.696;8.764;2022-08-03T03:48:01;6.15;;;5.47;;
45224;SDS011;30963;48.696;8.764;2022-08-03T03:50:28;6.10;;;5.70;;
45224;SDS011;30963;48.696;8.764;2022-08-03T03:52:55;6.43;;;5.82;;
45224;SDS011;30963;48.696;8.764;2022-08-03T03:55:21;6.25;;;5.75;;
45224;SDS011;30963;48.696;8.764;2022-08-03T03:57:47;6.10;;;5.70;;
45224;SDS011;30963;48.696;8.764;2022-08-03T04:00:14;6.65;;;6.05;;
45224;SDS011;30963;48.696;8.764;2022-08-03T04:02:43;6.70;;;6.10;;
45224;SDS011;30963;48.696;8.764;2022-08-03T04:05:09;6.22;;;5.75;;
45224;SDS011;30963;48.696;8.764;2022-08-03T04:07:57;6.60;;;6.10;;
45224;SDS011;30963;48.696;8.764;2022-08-03T04:10:42;6.45;;;5.95;;
45224;SDS011;30963;48.696;8.764;2022-08-03T04:13:23;6.38;;;5.80;;
45224;SDS011;30963;48.696;8.764;2022-08-03T04:15:49;6.07;;;5.53;;
45224;SDS011;30963;48.696;8.764;2022-08-03T04:18:16;6.22;;;5.72;;
45224;SDS011;30963;48.696;8.764;2022-08-03T04:20:44;6.63;;;6.13;;
45224;SDS011;30963;48.696;8.764;2022-08-03T04:23:11;6.00;;;5.50;;
45224;SDS011;30963;48.696;8.764;2022-08-03T04:25:38;6.65;;;6.15;;
45224;SDS011;30963;48.696;8.764;2022-08-03T04:28:07;6.30;;;5.80;;
45224;SDS011;30963;48.696;8.764;2022-08-03T04:30:33;6.70;;;6.20;;
45224;SDS011;30963;48.696;8.764;2022-08-03T04:33:00;6.57;;;5.97;;
45224;SDS011;30963;48.696;8.764;2022-08-03T04:35:31;5.88;;;5.47;;
45224;SDS011;30963;48.696;8.764;2022-08-03T04:38:00;6.38;;;5.88;;
45224;SDS011;30963;48.696;8.764;2022-08-03T04:40:30;6.03;;;5.63;;
45224;SDS011;30963;48.696;8.764;2022-08-03T04:42:57;6.25;;;5.75;;
45224;SDS011;30963;48.696;8.764;2022-08-03T04:45:26;6.40;;;5.90;;
45224;SDS011;30963;48.696;8.764;2022-08-03T04:47:52;6.60;;;6.10;;
45224;SDS011;30963;48.696;8.764;2022-08-03T04:50:21;6.50;;;5.88;;
45224;SDS011;30963;48.696;8.764;2022-08-03T04:52:47;6.18;;;5.68;;
45224;SDS011;30963;48.696;8.764;2022-08-03T04:57:52;6.72;;;6.13;;
45224;SDS011;30963;48.696;8.764;2022-08-03T05:00:20;7.28;;;6.78;;
45224;SDS011;30963;48.696;8.764;2022-08-03T05:02:46;7.00;;;6.43;;
45224;SDS011;30963;48.696;8.764;2022-08-03T05:05:14;7.80;;;7.20;;
45224;SDS011;30963;48.696;8.764;2022-08-03T05:07:41;7.68;;;6.97;;
45224;SDS011;30963;48.696;8.764;2022-08-03T05:10:10;9.57;;;7.47;;
45224;SDS011;30963;48.696;8.764;2022-08-03T05:12:36;8.20;;;7.38;;
45224;SDS011;30963;48.696;8.764;2022-08-03T05:15:03;7.82;;;7.22;;
45224;SDS011;30963;48.696;8.764;2022-08-03T05:17:29;10.10;;;7.53;;
45224;SDS011;30963;48.696;8.764;2022-08-03T05:19:55;8.23;;;7.38;;
45224;SDS011;30963;48.696;8.764;2022-08-03T05:22:21;7.55;;;6.93;;
45224;SDS011;30963;48.696;8.764;2022-08-03T05:24:47;7.18;;;6.45;;
45224;SDS011;30963;48.696;8.764;2022-08-03T05:27:13;7.47;;;6.78;;
45224;SDS011;30963;48.696;8.764;2022-08-03T05:29:46;7.63;;;6.82;;
45224;SDS011;30963;48.696;8.764;2022-08-03T05:32:15;8.05;;;7.35;;
45224;SDS011;30963;48.696;8.764;2022-08-03T05:34:41;8.15;;;7.53;;
45224;SDS011;30963;48.696;8.764;2022-08-03T05:37:07;7.05;;;6.50;;
45224;SDS011;30963;48.696;8.764;2022-08-03T05:39:33;7.53;;;6.90;;
45224;SDS011;30963;48.696;8.764;2022-08-03T05:41:59;7.55;;;6.95;;
45224;SDS011;30963;48.696;8.764;2022-08-03T05:44:25;7.43;;;6.82;;
45224;SDS011;30963;48.696;8.764;2022-08-03T05:46:51;7.15;;;6.43;;
45224;SDS011;30963;48.696;8.764;2022-08-03T05:49:20;6.60;;;6.03;;
45224;SDS011;30963;48.696;8.764;2022-08-03T05:51:46;6.30;;;5.85;;
45224;SDS011;30963;48.696;8.764;2022-08-03T05:54:14;6.95;;;6.43;;
45224;SDS011;30963;48.696;8.764;2022-08-03T05:56:40;6.63;;;6.13;;
45224;SDS011;30963;48.696;8.764;2022-08-03T05:59:06;7.82;;;6.10;;
45224;SDS011;30963;48.696;8.764;2022-08-03T06:01:32;6.05;;;5.40;;
45224;SDS011;30963;48.696;8.764;2022-08-03T06:03:58;6.38;;;5.88;;
45224;SDS011;30963;48.696;8.764;2022-08-03T06:06:24;6.50;;;5.90;;
45224;SDS011;30963;48.696;8.764;2022-08-03T06:08:50;5.88;;;5.32;;
45224;SDS011;30963;48.696;8.764;2022-08-03T06:11:17;5.95;;;5.35;;
45224;SDS011;30963;48.696;8.764;2022-08-03T06:13:43;5.53;;;5.13;;
45224;SDS011;30963;48.696;8.764;2022-08-03T06:16:09;5.70;;;5.20;;
45224;SDS011;30963;48.696;8.764;2022-08-03T06:18:38;6.18;;;5.68;;
45224;SDS011;30963;48.696;8.764;2022-08-03T06:21:06;5.93;;;5.07;;
45224;SDS011;30963;48.696;8.764;2022-08-03T06:23:32;7.38;;;5.90;;
45224;SDS011;30963;48.696;8.764;2022-08-03T06:26:01;5.68;;;5.10;;
45224;SDS011;30963;48.696;8.764;2022-08-03T06:28:30;5.90;;;5.40;;
45224;SDS011;30963;48.696;8.764;2022-08-03T06:30:56;5.15;;;4.65;;
45224;SDS011;30963;48.696;8.764;2022-08-03T06:33:25;5.32;;;4.82;;
45224;SDS011;30963;48.696;8.764;2022-08-03T06:35:51;5.28;;;4.88;;
45224;SDS011;30963;48.696;8.764;2022-08-03T06:38:19;4.57;;;4.28;;
45224;SDS011;30963;48.696;8.764;2022-08-03T06:40:45;5.68;;;5.07;;
45224;SDS011;30963;48.696;8.764;2022-08-03T06:43:14;5.53;;;5.13;;
45224;SDS011;30963;48.696;8.764;2022-08-03T06:45:40;5.60;;;5.10;;
45224;SDS011;30963;48.696;8.764;2022-08-03T06:48:07;5.90;;;5.10;;
45224;SDS011;30963;48.696;8.764;2022-08-03T06:50:34;6.40;;;5.18;;
45224;SDS011;30963;48.696;8.764;2022-08-03T06:53:03;5.05;;;4.65;;
45224;SDS011;30963;48.696;8.764;2022-08-03T06:55:31;5.10;;;4.50;;
45224;SDS011;30963;48.696;8.764;2022-08-03T06:58:00;7.72;;;5.07;;
45224;SDS011;30963;48.696;8.764;2022-08-03T07:00:26;5.38;;;4.88;;
45224;SDS011;30963;48.696;8.764;2022-08-03T07:02:52;5.03;;;4.68;;
45224;SDS011;30963;48.696;8.764;2022-08-03T07:05:18;5.05;;;4.65;;
45224;SDS011;30963;48.696;8.764;2022-08-03T07:07:44;7.15;;;4.90;;
45224;SDS011;30963;48.696;8.764;2022-08-03T07:10:10;5.28;;;4.78;;
45224;SDS011;30963;48.696;8.764;2022-08-03T07:12:37;5.45;;;4.95;;
45224;SDS011;30963;48.696;8.764;2022-08-03T07:15:03;5.07;;;4.50;;
45224;SDS011;30963;48.696;8.764;2022-08-03T07:17:30;4.57;;;4.28;;
45224;SDS011;30963;48.696;8.764;2022-08-03T07:19:57;6.40;;;4.50;;
45224;SDS011;30963;48.696;8.764;2022-08-03T07:22:25;4.60;;;4.30;;
45224;SDS011;30963;48.696;8.764;2022-08-03T07:24:52;4.75;;;4.10;;
45224;SDS011;30963;48.696;8.764;2022-08-03T07:27:18;4.03;;;3.72;;
45224;SDS011;30963;48.696;8.764;2022-08-03T07:29:44;3.80;;;3.50;;
45224;SDS011;30963;48.696;8.764;2022-08-03T07:32:10;4.07;;;3.78;;
45224;SDS011;30963;48.696;8.764;2022-08-03T07:34:36;5.43;;;4.03;;
45224;SDS011;30963;48.696;8.764;2022-08-03T07:37:02;3.90;;;3.60;;
45224;SDS011;30963;48.696;8.764;2022-08-03T07:39:32;4.20;;;3.80;;
45224;SDS011;30963;48.696;8.764;2022-08-03T07:41:59;3.83;;;3.50;;
45224;SDS011;30963;48.696;8.764;2022-08-03T07:44:25;4.75;;;3.47;;
45224;SDS011;30963;48.696;8.764;2022-08-03T07:46:51;4.18;;;3.70;;
45224;SDS011;30963;48.696;8.764;2022-08-03T07:49:21;4.45;;;3.60;;
45224;SDS011;30963;48.696;8.764;2022-08-03T07:51:52;3.50;;;3.20;;
45224;SDS011;30963;48.696;8.764;2022-08-03T07:54:36;4.00;;;2.70;;
45224;SDS011;30963;48.696;8.764;2022-08-03T07:57:05;2.60;;;2.40;;
45224;SDS011;30963;48.696;8.764;2022-08-03T07:59:31;2.72;;;2.58;;
45224;SDS011;30963;48.696;8.764;2022-08-03T08:01:59;2.75;;;2.45;;
45224;SDS011;30963;48.696;8.764;2022-08-03T08:04:25;2.70;;;2.55;;
45224;SDS011;30963;48.696;8.764;2022-08-03T08:06:51;3.20;;;2.85;;
45224;SDS011;30963;48.696;8.764;2022-08-03T08:09:17;2.60;;;2.45;;
45224;SDS011;30963;48.696;8.764;2022-08-03T08:11:45;2.65;;;2.40;;
45224;SDS011;30963;48.696;8.764;2022-08-03T08:14:11;3.17;;;2.83;;
45224;SDS011;30963;48.696;8.764;2022-08-03T08:16:37;3.70;;;2.80;;
45224;SDS011;30963;48.696;8.764;2022-08-03T08:19:03;3.13;;;2.80;;
45224;SDS011;30963;48.696;8.764;2022-08-03T08:21:29;2.97;;;2.60;;
45224;SDS011;30963;48.696;8.764;2022-08-03T08:23:55;2.60;;;2.40;;
45224;SDS011;30963;48.696;8.764;2022-08-03T08:26:21;2.75;;;2.55;;
45224;SDS011;30963;48.696;8.764;2022-08-03T08:28:47;4.22;;;3.30;;
45224;SDS011;30963;48.696;8.764;2022-08-03T08:31:18;2.78;;;2.45;;
45224;SDS011;30963;48.696;8.764;2022-08-03T08:33:44;3.08;;;2.72;;
45224;SDS011;30963;48.696;8.764;2022-08-03T08:36:13;2.80;;;2.60;;
45224;SDS011;30963;48.696;8.764;2022-08-03T08:38:39;2.88;;;2.55;;
45224;SDS011;30963;48.696;8.764;2022-08-03T08:41:08;2.90;;;2.70;;
45224;SDS011;30963;48.696;8.764;2022-08-03T08:43:37;2.83;;;2.63;;
45224;SDS011;30963;48.696;8.764;2022-08-03T08:46:04;3.70;;;2.75;;
45224;SDS011;30963;48.696;8.764;2022-08-03T08:48:32;2.60;;;2.40;;
45224;SDS011;30963;48.696;8.764;2022-08-03T08:51:00;2.58;;;2.45;;
45224;SDS011;30963;48.696;8.764;2022-08-03T08:53:27;2.80;;;2.50;;
45224;SDS011;30963;48.696;8.764;2022-08-03T08:55:54;3.53;;;2.50;;
45224;SDS011;30963;48.696;8.764;2022-08-03T08:58:23;2.47;;;2.38;;
45224;SDS011;30963;48.696;8.764;2022-08-03T09:00:49;3.85;;;2.30;;
45224;SDS011;30963;48.696;8.764;2022-08-03T09:03:15;2.47;;;2.28;;
45224;SDS011;30963;48.696;8.764;2022-08-03T09:05:44;2.38;;;2.15;;
45224;SDS011;30963;48.696;8.764;2022-08-03T09:08:10;2.05;;;1.95;;
45224;SDS011;30963;48.696;8.764;2022-08-03T09:10:37;2.78;;;2.15;;
45224;SDS011;30963;48.696;8.764;2022-08-03T09:13:05;2.40;;;2.20;;
45224;SDS011;30963;48.696;8.764;2022-08-03T09:15:32;2.47;;;2.00;;
45224;SDS011;30963;48.696;8.764;2022-08-03T09:18:00;2.38;;;2.20;;
45224;SDS011;30963;48.696;8.764;2022-08-03T09:20:27;2.20;;;2.10;;
45224;SDS011;30963;48.696;8.764;2022-08-03T09:23:06;2.63;;;2.42;;
45224;SDS011;30963;48.696;8.764;2022-08-03T09:25:34;2.85;;;2.45;;
45224;SDS011;30963;48.696;8.764;2022-08-03T09:30:30;2.72;;;2.30;;
45224;SDS011;30963;48.696;8.764;2022-08-03T09:33:05;2.35;;;2.25;;
45224;SDS011;30963;48.696;8.764;2022-08-03T09:35:32;2.30;;;2.20;;
45224;SDS011;30963;48.696;8.764;2022-08-03T09:40:38;2.80;;;2.25;;
45224;SDS011;30963;48.696;8.764;2022-08-03T09:43:07;2.70;;;2.50;;
45224;SDS011;30963;48.696;8.764;2022-08-03T09:45:36;2.95;;;2.30;;
45224;SDS011;30963;48.696;8.764;2022-08-03T09:48:22;2.60;;;2.40;;
45224;SDS011;30963;48.696;8.764;2022-08-03T09:50:52;2.78;;;2.58;;
45224;SDS011;30963;48.696;8.764;2022-08-03T09:53:18;2.40;;;2.30;;
45224;SDS011;30963;48.696;8.764;2022-08-03T09:55:57;2.63;;;2.42;;
45224;SDS011;30963;48.696;8.764;2022-08-03T09:58:24;2.85;;;2.42;;
45224;SDS011;30963;48.696;8.764;2022-08-03T10:00:58;2.58;;;2.40;;
45224;SDS011;30963;48.696;8.764;2022-08-03T10:03:28;2.97;;;2.78;;
45224;SDS011;30963;48.696;8.764;2022-08-03T10:05:57;2.75;;;2.55;;
45224;SDS011;30963;48.696;8.764;2022-08-03T10:08:23;4.57;;;2.85;;
45224;SDS011;30963;48.696;8.764;2022-08-03T10:10:50;3.83;;;2.80;;
45224;SDS011;30963;48.696;8.764;2022-08-03T10:13:21;2.53;;;2.22;;
45224;SDS011;30963;48.696;8.764;2022-08-03T10:15:48;2.63;;;2.42;;
45224;SDS011;30963;48.696;8.764;2022-08-03T10:18:14;2.60;;;2.40;;
45224;SDS011;30963;48.696;8.764;2022-08-03T10:20:42;2.50;;;2.33;;
45224;SDS011;30963;48.696;8.764;2022-08-03T10:23:12;2.72;;;2.50;;
45224;SDS011;30963;48.696;8.764;2022-08-03T10:25:39;2.42;;;2.25;;
45224;SDS011;30963;48.696;8.764;2022-08-03T10:28:07;2.60;;;2.50;;
45224;SDS011;30963;48.696;8.764;2022-08-03T10:30:36;3.58;;;2.63;;
45224;SDS011;30963;48.696;8.764;2022-08-03T10:33:06;3.05;;;2.55;;
45224;SDS011;30963;48.696;8.764;2022-08-03T10:35:37;2.63;;;2.42;;
45224;SDS011;30963;48.696;8.764;2022-08-03T10:38:09;3.72;;;2.40;;
45224;SDS011;30963;48.696;8.764;2022-08-03T10:40:37;3.03;;;2.83;;
45224;SDS011;30963;48.696;8.764;2022-08-03T10:43:11;2.80;;;2.60;;
45224;SDS011;30963;48.696;8.764;2022-08-03T10:45:42;2.80;;;2.60;;
45224;SDS011;30963;48.696;8.764;2022-08-03T10:48:13;4.38;;;2.55;;
45224;SDS011;30963;48.696;8.764;2022-08-03T10:50:39;2.72;;;2.53;;
45224;SDS011;30963;48.696;8.764;2022-08-03T10:53:08;2.70;;;2.50;;
45224;SDS011;30963;48.696;8.764;2022-08-03T11:01:07;2.70;;;2.60;;
45224;SDS011;30963;48.696;8.764;2022-08-03T11:04:35;4.60;;;2.78;;
45224;SDS011;30963;48.696;8.764;2022-08-03T11:06:30;2.70;;;2.50;;
45224;SDS011;30963;48.696;8.764;2022-08-03T11:11:41;2.53;;;2.42;;
45224;SDS011;30963;48.696;8.764;2022-08-03T11:16:40;3.78;;;2.60;;
45224;SDS011;30963;48.696;8.764;2022-08-03T11:19:07;2.80;;;2.60;;
45224;SDS011;30963;48.696;8.764;2022-08-03T11:21:56;2.90;;;2.70;;
45224;SDS011;30963;48.696;8.764;2022-08-03T11:40:41;3.20;;;2.90;;
45224;SDS011;30963;48.696;8.764;2022-08-03T11:48:27;2.70;;;2.60;;
45224;SDS011;30963;48.696;8.764;2022-08-03T11:51:02;5.00;;;3.00;;
45224;SDS011;30963;48.696;8.764;2022-08-03T11:53:28;3.10;;;2.90;;
45224;SDS011;30963;48.696;8.764;2022-08-03T11:55:58;2.92;;;2.70;;
45224;SDS011;30963;48.696;8.764;2022-08-03T11:58:24;3.45;;;2.85;;
45224;SDS011;30963;48.696;8.764;2022-08-03T12:01:01;3.33;;;2.80;;
45224;SDS011;30963;48.696;8.764;2022-08-03T12:03:30;3.00;;;2.80;;
45224;SDS011;30963;48.696;8.764;2022-08-03T12:05:59;3.10;;;2.90;;
45224;SDS011;30963;48.696;8.764;2022-08-03T12:10:52;3.15;;;2.80;;
45224;SDS011;30963;48.696;8.764;2022-08-03T12:13:19;3.35;;;2.92;;
45224;SDS011;30963;48.696;8.764;2022-08-03T12:15:49;4.93;;;3.22;;
45224;SDS011;30963;48.696;8.764;2022-08-03T12:18:16;5.30;;;2.95;;
45224;SDS011;30963;48.696;8.764;2022-08-03T12:20:43;11.40;;;3.70;;
45224;SDS011;30963;48.696;8.764;2022-08-03T12:23:10;5.28;;;3.10;;
45224;SDS011;30963;48.696;8.764;2022-08-03T12:25:37;3.08;;;2.88;;
45224;SDS011;30963;48.696;8.764;2022-08-03T12:28:11;3.38;;;2.90;;
45224;SDS011;30963;48.696;8.764;2022-08-03T12:30:38;3.60;;;2.70;;
45224;SDS011;30963;48.696;8.764;2022-08-03T12:33:14;6.40;;;3.67;;
45224;SDS011;30963;48.696;8.764;2022-08-03T12:35:40;3.67;;;2.80;;
45224;SDS011;30963;48.696;8.764;2022-08-03T12:38:06;2.92;;;2.67;;
45224;SDS011;30963;48.696;8.764;2022-08-03T12:40:35;3.35;;;3.00;;
45224;SDS011;30963;48.696;8.764;2022-08-03T12:43:08;2.92;;;2.72;;
45224;SDS011;30963;48.696;8.764;2022-08-03T12:45:35;3.20;;;2.90;;
45224;SDS011;30963;48.696;8.764;2022-08-03T12:48:01;2.80;;;2.60;;
45224;SDS011;30963;48.696;8.764;2022-08-03T12:50:31;3.78;;;2.60;;
45224;SDS011;30963;48.696;8.764;2022-08-03T12:52:58;2.90;;;2.70;;
45224;SDS011;30963;48.696;8.764;2022-08-03T12:55:25;4.05;;;2.60;;
45224;SDS011;30963;48.696;8.764;2022-08-03T12:57:58;3.92;;;2.90;;
45224;SDS011;30963;48.696;8.764;2022-08-03T13:00:24;3.17;;;2.88;;
45224;SDS011;30963;48.696;8.764;2022-08-03T13:03:07;3.55;;;2.70;;
45224;SDS011;30963;48.696;8.764;2022-08-03T13:05:43;3.30;;;3.00;;
45224;SDS011;30963;48.696;8.764;2022-08-03T13:08:21;3.15;;;2.85;;
45224;SDS011;30963;48.696;8.764;2022-08-03T13:10:48;5.97;;;3.17;;
45224;SDS011;30963;48.696;8.764;2022-08-03T13:13:14;3.20;;;2.90;;
45224;SDS011;30963;48.696;8.764;2022-08-03T13:15:40;2.97;;;2.78;;
45224;SDS011;30963;48.696;8.764;2022-08-03T13:18:06;3.08;;;2.88;;
45224;SDS011;30963;48.696;8.764;2022-08-03T13:20:35;3.63;;;2.95;;
45224;SDS011;30963;48.696;8.764;2022-08-03T13:23:03;4.07;;;3.10;;
45224;SDS011;30963;48.696;8.764;2022-08-03T13:25:29;2.60;;;2.40;;
45224;SDS011;30963;48.696;8.764;2022-08-03T13:27:55;2.88;;;2.67;;
45224;SDS011;30963;48.696;8.764;2022-08-03T13:30:21;3.05;;;2.78;;
45224;SDS011;30963;48.696;8.764;2022-08-03T13:32:47;3.03;;;2.70;;
45224;SDS011;30963;48.696;8.764;2022-08-03T13:35:13;4.35;;;3.40;;
45224;SDS011;30963;48.696;8.764;2022-08-03T13:37:39;4.07;;;3.05;;
45224;SDS011;30963;48.696;8.764;2022-08-03T13:40:05;2.88;;;2.60;;
45224;SDS011;30963;48.696;8.764;2022-08-03T13:42:32;3.97;;;2.70;;
45224;SDS011;30963;48.696;8.764;2022-08-03T13:44:59;3.90;;;2.80;;
45224;SDS011;30963;48.696;8.764;2022-08-03T13:47:27;3.33;;;2.97;;
45224;SDS011;30963;48.696;8.764;2022-08-03T13:49:53;3.47;;;2.67;;
45224;SDS011;30963;48.696;8.764;2022-08-03T13:52:22;3.78;;;2.67;;
45224;SDS011;30963;48.696;8.764;2022-08-03T13:54:50;3.47;;;3.05;;
45224;SDS011;30963;48.696;8.764;2022-08-03T13:57:16;4.03;;;3.00;;
45224;SDS011;30963;48.696;8.764;2022-08-03T13:59:42;3.40;;;3.03;;
45224;SDS011;30963;48.696;8.764;2022-08-03T14:02:08;3.28;;;2.70;;
45224;SDS011;30963;48.696;8.764;2022-08-03T14:04:36;3.70;;;2.90;;
45224;SDS011;30963;48.696;8.764;2022-08-03T14:07:02;3.60;;;3.08;;
45224;SDS011;30963;48.696;8.764;2022-08-03T14:09:31;3.53;;;3.05;;
45224;SDS011;30963;48.696;8.764;2022-08-03T14:11:57;3.17;;;2.88;;
45224;SDS011;30963;48.696;8.764;2022-08-03T14:14:23;3.05;;;2.85;;
45224;SDS011;30963;48.696;8.764;2022-08-03T14:16:49;3.00;;;2.80;;
45224;SDS011;30963;48.696;8.764;2022-08-03T14:19:15;3.30;;;3.00;;
45224;SDS011;30963;48.696;8.764;2022-08-03T14:21:41;3.42;;;2.85;;
45224;SDS011;30963;48.696;8.764;2022-08-03T14:24:07;4.88;;;2.80;;
45224;SDS011;30963;48.696;8.764;2022-08-03T14:26:33;3.83;;;3.42;;
45224;SDS011;30963;48.696;8.764;2022-08-03T14:28:59;4.25;;;2.92;;
45224;SDS011;30963;48.696;8.764;2022-08-03T14:31:25;3.20;;;2.90;;
45224;SDS011;30963;48.696;8.764;2022-08-03T14:33:51;3.17;;;2.88;;
45224;SDS011;30963;48.696;8.764;2022-08-03T14:36:19;2.83;;;2.63;;
45224;SDS011;30963;48.696;8.764;2022-08-03T14:38:48;3.70;;;3.20;;
45224;SDS011;30963;48.696;8.764;2022-08-03T14:41:16;3.33;;;3.03;;
45224;SDS011;30963;48.696;8.764;2022-08-03T14:43:42;3.20;;;3.00;;
45224;SDS011;30963;48.696;8.764;2022-08-03T14:46:08;3.15;;;2.63;;
45224;SDS011;30963;48.696;8.764;2022-08-03T14:48:34;2.70;;;2.53;;
45224;SDS011;30963;48.696;8.764;2022-08-03T14:51:00;3.80;;;2.92;;
45224;SDS011;30963;48.696;8.764;2022-08-03T14:53:26;3.50;;;3.20;;
45224;SDS011;30963;48.696;8.764;2022-08-03T14:55:52;3.60;;;2.80;;
45224;SDS011;30963;48.696;8.764;2022-08-03T14:58:21;4.03;;;2.97;;
45224;SDS011;30963;48.696;8.764;2022-08-03T15:00:49;4.22;;;3.42;;
45224;SDS011;30963;48.696;8.764;2022-08-03T15:03:15;4.30;;;3.05;;
45224;SDS011;30963;48.696;8.764;2022-08-03T15:05:44;3.08;;;2.83;;
45224;SDS011;30963;48.696;8.764;2022-08-03T15:08:10;5.30;;;3.00;;
45224;SDS011;30963;48.696;8.764;2022-08-03T15:10:36;4.60;;;2.97;;
45224;SDS011;30963;48.696;8.764;2022-08-03T15:13:04;3.45;;;2.88;;
45224;SDS011;30963;48.696;8.764;2022-08-03T15:15:30;5.13;;;3.08;;
45224;SDS011;30963;48.696;8.764;2022-08-03T15:17:56;3.45;;;3.17;;
45224;SDS011;30963;48.696;8.764;2022-08-03T15:20:22;4.65;;;3.00;;
45224;SDS011;30963;48.696;8.764;2022-08-03T15:22:48;3.53;;;3.05;;
45224;SDS011;30963;48.696;8.764;2022-08-03T15:25:14;3.70;;;3.08;;
45224;SDS011;30963;48.696;8.764;2022-08-03T15:27:40;3.17;;;2.88;;
45224;SDS011;30963;48.696;8.764;2022-08-03T15:30:06;3.15;;;2.95;;
45224;SDS011;30963;48.696;8.764;2022-08-03T15:32:33;3.30;;;2.60;;
45224;SDS011;30963;48.696;8.764;2022-08-03T15:35:00;3.45;;;3.15;;
45224;SDS011;30963;48.696;8.764;2022-08-03T15:37:26;3.20;;;3.00;;
45224;SDS011;30963;48.696;8.764;2022-08-03T15:39:52;4.57;;;3.10;;
45224;SDS011;30963;48.696;8.764;2022-08-03T15:42:20;3.58;;;2.83;;
45224;SDS011;30963;48.696;8.764;2022-08-03T15:44:46;4.32;;;3.25;;
45224;SDS011;30963;48.696;8.764;2022-08-03T15:47:12;2.80;;;2.60;;
45224;SDS011;30963;48.696;8.764;2022-08-03T15:49:38;3.30;;;3.05;;
45224;SDS011;30963;48.696;8.764;2022-08-03T15:52:07;3.80;;;2.80;;